Latest Observation

67 Stations

10 Minute Data
as of 5/8/26 3:54 AM PDT
Station Date Time Temp (°F) RH (%) Dew Pt (°F) Wind Spd (mph) Wind Dir (°) Wind Gust (mph) Wind Gst Dir (°) Latest Rain (In) Soil Moist (%) Soil Temp (°F) Daily Rain (In) Daily Min Temp (°F) Daily Max Temp (°F) Daily Max Wind (mph)
Hobart Mills 5/8/26 0350 31.1   9.2 79   15 25.4   13.5 2.6   2.4 W | 265 4.0   1.9 W | 273 0.00 - 32.0   0.0 0.03 31.0   9.3 69.6   0.0 8.2   0.0
Prosser Dam 5/8/26 0350 32.7   7.9 94   3 31.3   8.6 1.3   0.5 W | 276 2.9   0.2 W | 281 0.00 23.3   1.0 52.2   0.8 0.00 32.4   7.4 38.8   5.9 3.6   0.5
West Incline Village 5/8/26 0350 46.9   1.7 30   49 17.1   25.4 2.9   0.2 NNE | 27 3.8   0.5 NNE | 28 0.00 33.2   0.8 46.6   1.2 0.00 45.2   3.3 48.2   2.6 4.5   0.4
Incline Village (Fairview Blvd) 5/8/26 0350 45.6   3.6 50   26 27.9   13.9 0.0   0.0 N | 0 0.0   0.0 NE | 39 0.00 26.3   0.5 52.2   1.5 0.00 45.5   3.7 51.7   0.7 2.7   2.7
Incline Village (Diamond Peak) 5/8/26 0350 44.9   4.5 51   26 27.7   14.7 0.0   0.0 N | 0 0.0   0.0 NNE | 32 0.00 9.6   0.3 49.2   2.2 0.00 44.7   4.6 49.2   2.4 2.2   0.7
Incline Village (Mill Creek) 5/8/26 0350 43.2   4.2 69   17 33.8   9.6 0.0   0.0 N | 0 0.0   0.0 ENE | 76 0.00 11.2   0.1 46.8   1.1 0.00 43.1   4.1 45.7   3.4 2.2   2.2
Incline Village (Lakeshore Blvd) 5/8/26 0350 37.1   5.4 70   24 28.2   12.7 1.5   0.5 NE | 43 2.9   1.1 NE | 51 0.00 32.2   2.1 52.8   0.6 0.00 37.0   5.2 42.2   3.1 3.4   0.9
Glenbrook 5/8/26 0350 39.6   4.2 87   6 36.1   6.0 0.6   0.4 ESE | 121 2.0   0.7 ESE | 120 0.00 44.3   0.1 46.0   0.8 0.00 39.2   4.2 42.7   3.7 3.5   0.5
Zephyr Cove 5/8/26 0340 42.1   4.3 79   8 36.1   6.7 0.0   0.0 NNW | 339 0.6   0.6 NNW | 334 0.00 - 34.3   0.0 0.00 42.0   4.3 46.4   2.8 0.6   0.6
Kingsbury Grade 5/8/26 0350 37.5   6.1 86   6 33.7   7.7 0.0   0.1 NNE | 28 1.0   0.9 NNE | 23 0.00 7.2   1.7 54.9   2.2 0.00 37.3   6.0 41.9   4.0 1.9   1.4
South Daggett Pass (Ridge) 5/8/26 0350 41.9   6.9 73   1 33.9   6.2 3.1   1.1 W | 278 6.8   2.1 W | 276 0.00 6.7   0.1 49.4   1.7 0.00 41.3   6.7 45.0   6.2 9.9   3.9
Palomino Valley 5/8/26 0350 50.8   0.5 53   21 34.0   9.2 1.2   1.9 SSW | 193 3.7   1.1 SSW | 192 0.00 7.0   0.1 68.4   1.5 0.00 45.0   4.7 54.8   2.2 7.2   0.2
East Cold Springs 5/8/26 0350 49.4   3.5 52   15 32.7   9.7 11.3   2.8 W | 260 14.8   3.1 WSW | 256 0.00 1.8   0.0 59.1   0.9 0.00 48.6   4.1 53.7   4.2 17.5   4.5
Peavine 5/8/26 0350 48.7   9.6 30   18 19.0   19.8 6.3   0.0 SSW | 204 8.7   1.2 SSW | 206 0.00 - 53.4   0.0 0.00 48.1   6.7 55.0   5.5 8.7   0.4
West Verdi Peak 5/8/26 0350 53.6   1.0 26   34 19.3   21.5 1.9   1.5 SW | 216 8.2   5.0 SW | 222 0.00 20.8   1.0 55.1   1.2 0.00 50.1   3.3 55.4   2.2 13.0   3.5
West Verdi 5/8/26 0350 48.9   4.0 45   26 28.2   15.3 4.0   2.3 WNW | 291 7.6   3.8 WNW | 301 0.00 8.0   0.2 64.5   1.5 0.00 47.3   5.4 55.5   2.7 7.6   2.2
South Verdi 5/8/26 0350 47.2   8.7 49   12 28.8   13.6 14.7   1.0 WSW | 248 18.3   0.7 WSW | 248 0.00 16.5   0.3 61.0   0.1 0.00 46.3   6.8 57.6   2.5 27.1   5.1
Northwest Reno 5/8/26 0350 57.1   1.5 23   31 19.5   22.3 1.4   2.1 WSW | 257 5.6   0.1 WNW | 290 0.00 24.2   0.2 65.8   1.6 0.00 56.1   1.9 63.1   1.2 28.0   9.6
North Lawton 5/8/26 0350 52.8   4.4 35   24 25.7   17.0 6.8   2.2 WSW | 246 10.8   2.1 WSW | 255 0.00 - 39.1   0.0 0.00 52.7   4.4 57.5   3.8 17.3   1.2
West Reno (Mogul) 5/8/26 0350 51.8   4.0 38   25 26.7   16.6 9.2   5.8 WNW | 300 13.5   6.0 NW | 309 0.00 37.3   0.7 62.6   1.4 0.00 50.9   3.8 57.0   3.1 15.2   4.5
Caughlin (Hunter Lake Trail) 9/16/25 0800 59.7   3.5 41   11 35.9   2.7 0.0   0.0 N | 0 0.0   0.0 ENE | 66 0.00 15.7   0.0 69.8   0.5 0.00 55.7   3.2 67.7   9.1 9.4   0.9
ArrowCreek 5/8/26 0350 54.4   2.9 34   21 26.9   14.5 5.0   0.4 W | 270 7.9   0.7 WSW | 256 0.00 - 32.0   0.0 0.00 50.0   5.0 59.0   2.4 12.3   1.4
Tracy 5/8/26 0350 55.6   3.4 40   15 31.4   11.3 11.5   4.4 WSW | 249 15.5   4.5 WSW | 249 0.00 8.2   0.2 67.8   2.4 0.00 55.1   3.6 62.8   0.4 15.6   2.6
Virginia Highlands 5/8/26 0350 54.9   1.6 24   33 18.4   22.7 6.3   6.3 WSW | 244 9.2   9.2 SW | 230 0.00 8.3   0.2 57.7   1.4 0.00 52.0   3.6 55.3   4.9 9.2   4.2
Virginia City 5/8/26 0350 57.0   1.5 20   30 16.7   23.5 10.5   9.4 WNW | 294 16.5   13.9 WNW | 290 0.00 8.5   0.1 58.3   2.0 0.00 53.6   2.8 57.6   2.7 18.3   9.1
Six Mile Canyon 9/9/25 0630 60.2   9.6 37   6 33.7   4.8 4.1   2.5 W | 277 6.1   2.9 WNW | 286 0.00 12.5   0.0 75.5   0.7 0.00 57.9   7.6 64.4   1.9 7.0   3.9
Mt Rose Highway 4/30/26 0510 40.8   4.7 47   13 22.3   1.3 2.3   0.2 WSW | 243 4.8   2.1 WSW | 246 0.00 24.1   0.3 43.0   0.8 0.00 40.5   4.7 43.0   5.3 7.7   0.4
Pleasant Valley 5/8/26 0350 45.3   6.8 43   20 24.3   15.7 1.4   1.6 SW | 236 4.3   0.0 WNW | 285 0.00 2.8   0.1 64.8   2.4 0.00 43.2   7.1 51.8   3.5 10.4   4.6
New Washoe City 5/8/26 0350 49.8   0.6 44   20 29.1   9.7 4.1   1.4 NE | 38 6.5   1.5 NNE | 33 0.00 4.5   0.0 62.2   1.8 0.00 48.1   1.5 56.4   2.5 8.1   1.2
Franktown Creek 5/8/26 0350 46.8   1.9 42   38 24.7   17.9 1.3   1.3 NW | 308 3.5   3.5 NW | 307 0.00 11.2   0.0 57.8   1.6 0.00 46.4   2.0 50.1   2.2 4.6   1.1
Musgrove Creek 5/8/26 0350 56.0   0.2 31   28 25.6   16.7 5.1   4.0 SSW | 207 9.9   5.8 SSW | 198 0.00 44.9   0.2 54.2   1.3 0.00 55.6   0.4 59.3   1.3 12.9   6.5
East Carson 11/23/24 0110 28.6   28.4 - - 4.7   11.0 SW | 220 14.7   10.1 SW | 219 0.02 - 50.9   0.1 0.02 -25.9   79.1 42.9   14.6 16.0   10.7
Kings Canyon 5/8/26 0350 46.7   2.2 39   30 23.3   16.0 4.5   1.2 S | 190 7.3   3.1 SSW | 196 0.00 14.9   0.2 60.0   0.8 0.00 43.4   5.3 48.8   3.9 7.6   0.9
Carson City (Voltaire Canyon) 5/8/26 0350 56.0   2.0 45   0 35.1   1.8 13.8   5.3 WSW | 254 18.0   4.8 WSW | 248 0.00 2.8   0.1 62.2   1.7 0.00 55.4   2.1 59.4   1.9 18.0   4.1
Jacks Valley 5/8/26 0350 51.0   1.7 54   0 35.1   1.4 1.3   0.4 WSW | 258 4.1   1.9 W | 276 0.00 13.7   0.2 65.0   1.9 0.00 49.9   2.2 57.6   1.3 8.4   4.1
Genoa 5/8/26 0350 49.4   1.6 55   15 33.8   7.6 0.0   0.0 N | 0 0.0   0.0 SSW | 213 0.00 7.9   1.0 57.7   1.6 0.00 48.9   1.6 54.8   0.2 4.0   1.2
South Genoa (Walleys Hot Springs) 5/8/26 0350 48.3   1.4 68   0 38.2   1.5 0.8   0.7 SSW | 201 4.3   2.4 SSW | 205 0.00 13.9   0.0 64.9   2.2 0.00 44.7   3.3 57.3   0.1 7.5   2.5
SW Gardnerville (HWY 88) 5/8/26 0350 42.6   3.9 74   0 34.8   3.8 1.3   1.3 SSE | 147 2.6   2.2 SE | 144 0.00 3.5   0.0 60.6   2.1 0.00 40.7   2.7 51.4   0.5 6.0   1.4
Sheridan 5/8/26 0350 49.9   1.0 50   9 32.2   5.2 3.9   2.6 W | 274 5.8   3.4 W | 266 0.00 4.6   0.8 62.7   1.9 0.00 48.3   1.2 56.3   0.5 7.0   0.1
Ruhenstroth 5/8/26 0350 49.2   1.5 44   14 28.1   8.4 1.8   2.8 SSE | 155 7.8   0.2 SE | 135 0.00 12.6   0.0 62.4   2.2 0.00 47.9   1.8 53.3   2.6 7.8   1.5
Double Spring 5/8/26 0350 40.8   1.2 59   25 27.6   7.7 5.0   3.4 NNW | 328 7.9   4.8 NW | 318 0.00 31.3   0.3 59.3   2.7 0.00 38.8   0.2 51.1   5.3 9.2   6.1
North Topaz Lake 5/8/26 0350 59.7   1.7 16   22 13.5   19.2 7.8   6.9 W | 272 9.6   6.3 W | 276 0.00 9.4   0.1 58.6   2.8 0.00 58.2   3.4 61.7   1.2 11.0   4.1
Wild Oat Mountain 5/8/26 0350 56.9   0.4 21   18 17.4   15.0 1.7   1.7 SSW | 207 4.8   4.8 NNW | 336 0.00 16.9   0.1 61.2   1.4 0.00 56.4   0.4 59.3   0.6 8.4   4.1
Smith Valley 5/8/26 0350 51.4   2.4 42   14 29.2   9.2 2.2   2.2 WNW | 288 3.7   1.9 NW | 308 0.00 5.9   0.1 65.3   2.5 0.00 48.9   0.5 59.5   2.1 6.7   0.7
Pine Grove Mountain 5/8/26 0350 50.1   2.4 18   15 8.3   15.7 10.2   6.8 W | 268 13.2   8.0 W | 272 0.00 21.3   1.2 52.5   2.1 0.00 50.0   1.4 51.8   2.1 15.4   6.8
Paradise Hill 5/8/26 0350 52.0   2.4 35   6 25.4   1.5 3.0   0.0 E | 92 7.8   1.0 E | 87 0.00 8.0   0.0 63.3   1.0 0.00 48.7   0.2 64.9   9.6 12.5   1.5
Winnemucca 5/8/26 0350 61.0   5.0 30   2 29.1   2.8 6.4   0.0 S | 187 9.4   0.8 SSW | 193 0.00 6.0   0.0 62.9   1.5 0.00 54.4   1.3 65.0   8.2 10.9   0.1
NE Elko 5/8/26 0350 38.5   9.7 53   5 22.8   6.7 2.1   0.1 E | 82 3.8   1.4 ENE | 78 0.00 12.5   0.1 60.2   1.0 0.00 36.9   1.1 45.4   3.1 6.7   0.6
North Elko 5/8/26 0350 55.8   3.6 31   9 25.7   2.9 2.3   1.6 SW | 219 4.0   0.9 SW | 215 0.00 28.5   0.1 59.3   2.5 0.00 53.9   2.2 58.8   3.2 6.1   4.7
South Elko 5/8/26 0350 59.2   25.8 34   21 30.7   36.2 3.1   4.0 W | 268 5.0   3.5 W | 274 0.00 18.4   0.0 58.9   2.0 0.00 55.2   5.1 66.2   54.4 5.1   5.6
Lamoille 1/28/26 1720 33.2   0.5 65   17 22.8   6.3 5.8   1.5 SSE | 166 7.7   1.9 SE | 139 0.00 12.2   0.0 33.4   0.1 0.02 23.5   2.0 36.5   5.9 25.6   17.4
Reid Gardner Sub 5/6/26 1130 73.4   2.5 26   2 36.5   0.4 2.6   2.7 SSW | 196 7.6   4.5 SW | 218 0.00 24.0   0.1 70.1   0.4 0.00 50.0   4.6 74.0   1.7 7.6   7.8
Corn Creek 5/8/26 0350 75.4   10.5 17   9 28.2   1.3 9.1   6.2 WSW | 248 11.3   6.3 WSW | 250 0.00 4.0   0.0 78.8   3.3 0.00 71.2   6.7 77.8   7.4 13.0   5.6
Lucky Strike 5/8/26 0350 72.3   13.7 16   13 23.4   2.6 12.0   4.7 W | 265 17.8   8.1 W | 264 0.00 4.6   0.1 71.4   2.9 0.00 69.2   12.1 73.1   10.2 20.9   7.7
Lower Angel Peak 5/8/26 0350 61.6   12.2 24   17 24.2   2.1 3.8   2.4 SSW | 198 5.7   2.7 SSW | 207 0.00 10.2   0.1 58.9   2.3 0.00 56.8   8.2 64.6   9.9 10.2   1.7
Angel Peak 5/8/26 0350 54.3   7.4 26   14 20.5   3.7 15.6   12.1 WNW | 290 23.4   13.8 WNW | 297 0.00 3.5   0.0 55.2   4.6 0.00 54.2   7.4 55.7   7.1 33.0   23.1
Upper Kyle Canyon 5/8/26 0350 54.4   8.4 28   10 22.0   0.2 2.8   1.0 N | 349 7.1   0.4 N | 350 0.00 13.5   0.1 58.7   2.0 0.00 52.3   8.3 57.4   9.2 10.8   2.9
Mt Charleston 5/8/26 0350 58.8   11.3 26   11 24.1   1.4 2.4   0.3 WNW | 284 6.2   1.5 W | 266 0.00 18.3   0.0 50.2   1.2 0.00 54.3   7.5 60.9   10.9 12.2   4.7
Mid Kyle Canyon 5/8/26 0350 59.3   8.9 26   11 24.3   0.8 10.0   0.5 WNW | 293 15.0   0.2 W | 272 0.00 7.1   0.0 62.3   2.9 0.00 57.7   7.9 61.9   10.1 18.4   1.0
Blue Diamond 5/8/26 0350 78.5   20.9 18   17 31.5   1.5 9.5   6.4 NNW | 328 14.4   8.3 NW | 321 0.00 3.0   0.1 72.3   1.5 0.00 78.3   21.3 81.4   17.8 21.7   12.4
Artesian Sub 5/8/26 0350 72.4   1.2 23   8 32.8   9.1 0.3   0.5 SSW | 199 2.5   1.6 SSW | 212 0.00 13.2   0.1 74.7   0.3 0.00 71.7   1.2 77.5   2.1 4.2   2.5
North Henderson 5/8/26 0350 75.8   3.8 20   7 32.3   3.9 1.7   0.7 SSE | 147 2.6   1.6 SSW | 192 0.00 8.8   0.1 81.0   1.3 0.00 74.6   3.8 79.2   2.4 5.3   3.7
Sandy Valley 5/8/26 0350 73.8   8.0 21   11 32.0   3.6 4.1   2.4 NNW | 332 6.2   3.0 NNW | 339 0.00 4.5   0.0 81.8   2.4 0.00 70.6   8.8 78.8   6.1 10.9   2.0
Searchlight 5/8/26 0350 71.2   9.2 28   0 36.6   7.7 7.6   1.7 NNW | 339 10.9   3.9 NNW | 340 0.00 4.8   0.1 77.9   2.8 0.00 70.4   11.9 74.9   6.8 13.3   3.2
Laughlin 5/8/26 0350 76.2   0.3 18   8 30.2   9.2 6.5   0.1 NNE | 22 7.3   0.6 NNE | 24 0.00 4.2   0.0 85.1   1.3 0.00 75.7   1.9 84.8   3.9 8.4   0.9
31Mission Hills 5/8/26 0350 78.6   8.6 15   3 27.5   2.2 2.4   0.4 NNE | 26 4.8   0.9 NNE | 28 0.00 3.7   0.1 81.8   3.9 0.00 77.8   8.6 80.5   5.7 8.3   0.1
32 Enterprise Sierra Cliffs 5/8/26 0350 81.2   12.8 14   5 27.8   2.5 6.2   4.7 WSW | 256 16.2   3.6 WSW | 258 0.00 2.2   0.0 76.8   4.5 0.00 78.1   10.8 82.3   10.1 23.7   9.4
Max     81.2 94 38.2 15.6 - 23.4 - 0.00 44.9 85.1 0.03 78.3 84.8 33.0
Avg     53.9 41 27.4 4.6 - 7.5 - 0.00 13.1 60.1 - - - -
Min     31.1 14 8.3 0.0 - 0.0 - 0.00 1.8 32.0 0.00 31.0 38.8 0.6